sensor_id;sensor_type;location;lat;lon;timestamp;P1;durP1;ratioP1;P2;durP2;ratioP2
17993;SDS011;9122;48.406;9.984;2023-04-24T00:02:44;2.10;;;1.30;;
17993;SDS011;9122;48.406;9.984;2023-04-24T00:05:30;1.13;;;1.03;;
17993;SDS011;9122;48.406;9.984;2023-04-24T00:08:15;1.67;;;1.00;;
17993;SDS011;9122;48.406;9.984;2023-04-24T00:10:59;1.03;;;1.03;;
17993;SDS011;9122;48.406;9.984;2023-04-24T00:13:43;1.03;;;1.03;;
17993;SDS011;9122;48.406;9.984;2023-04-24T00:16:28;1.20;;;1.20;;
17993;SDS011;9122;48.406;9.984;2023-04-24T00:19:13;1.33;;;1.23;;
17993;SDS011;9122;48.406;9.984;2023-04-24T00:21:57;1.33;;;1.27;;
17993;SDS011;9122;48.406;9.984;2023-04-24T00:24:42;2.13;;;1.43;;
17993;SDS011;9122;48.406;9.984;2023-04-24T00:27:27;1.70;;;1.60;;
17993;SDS011;9122;48.406;9.984;2023-04-24T00:30:11;1.50;;;1.40;;
17993;SDS011;9122;48.406;9.984;2023-04-24T00:32:55;1.83;;;1.10;;
17993;SDS011;9122;48.406;9.984;2023-04-24T00:35:40;1.97;;;1.03;;
17993;SDS011;9122;48.406;9.984;2023-04-24T00:38:25;1.50;;;1.40;;
17993;SDS011;9122;48.406;9.984;2023-04-24T00:41:09;1.30;;;1.10;;
17993;SDS011;9122;48.406;9.984;2023-04-24T00:43:54;1.23;;;1.13;;
17993;SDS011;9122;48.406;9.984;2023-04-24T00:46:38;1.30;;;0.87;;
17993;SDS011;9122;48.406;9.984;2023-04-24T00:49:23;1.33;;;1.23;;
17993;SDS011;9122;48.406;9.984;2023-04-24T00:52:08;2.70;;;1.30;;
17993;SDS011;9122;48.406;9.984;2023-04-24T00:54:52;1.30;;;1.20;;
17993;SDS011;9122;48.406;9.984;2023-04-24T00:57:37;2.33;;;1.23;;
17993;SDS011;9122;48.406;9.984;2023-04-24T01:00:22;1.50;;;1.40;;
17993;SDS011;9122;48.406;9.984;2023-04-24T01:03:07;2.20;;;1.60;;
17993;SDS011;9122;48.406;9.984;2023-04-24T01:05:52;1.57;;;1.47;;
17993;SDS011;9122;48.406;9.984;2023-04-24T01:08:39;1.63;;;1.50;;
17993;SDS011;9122;48.406;9.984;2023-04-24T01:11:25;2.73;;;1.27;;
17993;SDS011;9122;48.406;9.984;2023-04-24T01:14:10;2.43;;;1.60;;
17993;SDS011;9122;48.406;9.984;2023-04-24T01:16:54;1.60;;;1.50;;
17993;SDS011;9122;48.406;9.984;2023-04-24T01:19:39;1.60;;;1.50;;
17993;SDS011;9122;48.406;9.984;2023-04-24T01:22:23;1.63;;;1.40;;
17993;SDS011;9122;48.406;9.984;2023-04-24T01:25:08;2.57;;;1.53;;
17993;SDS011;9122;48.406;9.984;2023-04-24T01:27:53;1.80;;;1.70;;
17993;SDS011;9122;48.406;9.984;2023-04-24T01:30:37;1.87;;;1.77;;
17993;SDS011;9122;48.406;9.984;2023-04-24T01:33:22;1.83;;;1.37;;
17993;SDS011;9122;48.406;9.984;2023-04-24T01:36:06;1.80;;;1.50;;
17993;SDS011;9122;48.406;9.984;2023-04-24T01:38:52;1.00;;;1.00;;
17993;SDS011;9122;48.406;9.984;2023-04-24T01:41:36;1.20;;;1.20;;
17993;SDS011;9122;48.406;9.984;2023-04-24T01:44:21;1.50;;;1.40;;
17993;SDS011;9122;48.406;9.984;2023-04-24T01:47:06;1.17;;;1.10;;
17993;SDS011;9122;48.406;9.984;2023-04-24T01:49:51;1.90;;;1.67;;
17993;SDS011;9122;48.406;9.984;2023-04-24T01:52:36;1.80;;;1.37;;
17993;SDS011;9122;48.406;9.984;2023-04-24T01:55:21;1.27;;;1.17;;
17993;SDS011;9122;48.406;9.984;2023-04-24T01:58:05;3.17;;;1.77;;
17993;SDS011;9122;48.406;9.984;2023-04-24T02:00:50;1.50;;;1.40;;
17993;SDS011;9122;48.406;9.984;2023-04-24T02:03:34;2.03;;;1.60;;
17993;SDS011;9122;48.406;9.984;2023-04-24T02:06:19;1.53;;;1.43;;
17993;SDS011;9122;48.406;9.984;2023-04-24T02:09:03;2.10;;;1.60;;
17993;SDS011;9122;48.406;9.984;2023-04-24T02:11:48;1.50;;;1.40;;
17993;SDS011;9122;48.406;9.984;2023-04-24T02:14:33;2.57;;;1.70;;
17993;SDS011;9122;48.406;9.984;2023-04-24T02:17:17;1.80;;;1.60;;
17993;SDS011;9122;48.406;9.984;2023-04-24T02:20:02;1.20;;;1.20;;
17993;SDS011;9122;48.406;9.984;2023-04-24T02:22:48;2.10;;;1.30;;
17993;SDS011;9122;48.406;9.984;2023-04-24T02:25:33;1.40;;;1.20;;
17993;SDS011;9122;48.406;9.984;2023-04-24T02:28:17;1.63;;;1.40;;
17993;SDS011;9122;48.406;9.984;2023-04-24T02:31:01;1.77;;;1.60;;
17993;SDS011;9122;48.406;9.984;2023-04-24T02:33:46;2.53;;;1.60;;
17993;SDS011;9122;48.406;9.984;2023-04-24T02:36:31;1.47;;;1.37;;
17993;SDS011;9122;48.406;9.984;2023-04-24T02:39:15;1.60;;;1.50;;
17993;SDS011;9122;48.406;9.984;2023-04-24T02:42:00;1.10;;;1.10;;
17993;SDS011;9122;48.406;9.984;2023-04-24T02:44:45;2.03;;;1.20;;
17993;SDS011;9122;48.406;9.984;2023-04-24T02:47:30;1.50;;;1.40;;
17993;SDS011;9122;48.406;9.984;2023-04-24T02:50:14;1.90;;;1.20;;
17993;SDS011;9122;48.406;9.984;2023-04-24T02:52:59;0.80;;;0.80;;
17993;SDS011;9122;48.406;9.984;2023-04-24T02:55:44;1.00;;;1.00;;
17993;SDS011;9122;48.406;9.984;2023-04-24T02:58:29;1.67;;;1.00;;
17993;SDS011;9122;48.406;9.984;2023-04-24T03:01:14;2.33;;;1.40;;
17993;SDS011;9122;48.406;9.984;2023-04-24T03:03:59;0.93;;;0.90;;
17993;SDS011;9122;48.406;9.984;2023-04-24T03:06:43;1.10;;;0.90;;
17993;SDS011;9122;48.406;9.984;2023-04-24T03:09:27;1.37;;;0.90;;
17993;SDS011;9122;48.406;9.984;2023-04-24T03:12:12;0.97;;;0.97;;
17993;SDS011;9122;48.406;9.984;2023-04-24T03:14:56;1.20;;;1.20;;
17993;SDS011;9122;48.406;9.984;2023-04-24T03:17:40;1.70;;;0.97;;
17993;SDS011;9122;48.406;9.984;2023-04-24T03:20:25;1.13;;;1.03;;
17993;SDS011;9122;48.406;9.984;2023-04-24T03:23:10;1.00;;;1.00;;
17993;SDS011;9122;48.406;9.984;2023-04-24T03:25:55;2.17;;;1.20;;
17993;SDS011;9122;48.406;9.984;2023-04-24T03:28:40;1.27;;;1.27;;
17993;SDS011;9122;48.406;9.984;2023-04-24T03:31:24;1.40;;;1.30;;
17993;SDS011;9122;48.406;9.984;2023-04-24T03:34:09;1.63;;;1.53;;
17993;SDS011;9122;48.406;9.984;2023-04-24T03:36:54;1.47;;;1.37;;
17993;SDS011;9122;48.406;9.984;2023-04-24T03:39:38;1.77;;;1.63;;
17993;SDS011;9122;48.406;9.984;2023-04-24T03:42:23;1.50;;;1.40;;
17993;SDS011;9122;48.406;9.984;2023-04-24T03:45:08;1.80;;;1.70;;
17993;SDS011;9122;48.406;9.984;2023-04-24T03:47:53;2.03;;;1.90;;
17993;SDS011;9122;48.406;9.984;2023-04-24T03:50:37;2.40;;;2.30;;
17993;SDS011;9122;48.406;9.984;2023-04-24T03:53:22;2.10;;;2.00;;
17993;SDS011;9122;48.406;9.984;2023-04-24T03:56:07;1.90;;;1.80;;
17993;SDS011;9122;48.406;9.984;2023-04-24T03:58:51;1.80;;;1.70;;
17993;SDS011;9122;48.406;9.984;2023-04-24T04:01:36;1.83;;;1.70;;
17993;SDS011;9122;48.406;9.984;2023-04-24T04:04:21;2.57;;;2.13;;
17993;SDS011;9122;48.406;9.984;2023-04-24T04:07:05;1.80;;;1.70;;
17993;SDS011;9122;48.406;9.984;2023-04-24T04:09:50;2.03;;;1.93;;
17993;SDS011;9122;48.406;9.984;2023-04-24T04:12:34;2.67;;;2.47;;
17993;SDS011;9122;48.406;9.984;2023-04-24T04:15:18;2.40;;;2.20;;
17993;SDS011;9122;48.406;9.984;2023-04-24T04:18:04;2.03;;;1.93;;
17993;SDS011;9122;48.406;9.984;2023-04-24T04:20:49;2.20;;;2.03;;
17993;SDS011;9122;48.406;9.984;2023-04-24T04:23:34;2.47;;;2.27;;
17993;SDS011;9122;48.406;9.984;2023-04-24T04:26:18;2.53;;;2.33;;
17993;SDS011;9122;48.406;9.984;2023-04-24T04:29:04;2.03;;;1.93;;
17993;SDS011;9122;48.406;9.984;2023-04-24T04:31:50;2.83;;;2.40;;
17993;SDS011;9122;48.406;9.984;2023-04-24T04:34:36;2.30;;;2.10;;
17993;SDS011;9122;48.406;9.984;2023-04-24T04:37:21;2.57;;;2.23;;
17993;SDS011;9122;48.406;9.984;2023-04-24T04:40:06;2.63;;;2.40;;
17993;SDS011;9122;48.406;9.984;2023-04-24T04:42:57;2.57;;;2.40;;
17993;SDS011;9122;48.406;9.984;2023-04-24T04:45:43;2.50;;;2.30;;
17993;SDS011;9122;48.406;9.984;2023-04-24T04:48:28;2.90;;;2.70;;
17993;SDS011;9122;48.406;9.984;2023-04-24T04:51:15;2.50;;;2.30;;
17993;SDS011;9122;48.406;9.984;2023-04-24T04:53:59;2.37;;;2.20;;
17993;SDS011;9122;48.406;9.984;2023-04-24T04:56:44;3.27;;;2.63;;
17993;SDS011;9122;48.406;9.984;2023-04-24T04:59:29;2.30;;;2.20;;
17993;SDS011;9122;48.406;9.984;2023-04-24T05:02:13;2.40;;;2.20;;
17993;SDS011;9122;48.406;9.984;2023-04-24T05:04:58;2.40;;;2.30;;
17993;SDS011;9122;48.406;9.984;2023-04-24T05:07:43;2.00;;;1.90;;
17993;SDS011;9122;48.406;9.984;2023-04-24T05:10:28;1.60;;;1.50;;
17993;SDS011;9122;48.406;9.984;2023-04-24T05:13:13;2.10;;;1.80;;
17993;SDS011;9122;48.406;9.984;2023-04-24T05:15:57;2.37;;;1.47;;
17993;SDS011;9122;48.406;9.984;2023-04-24T05:18:42;1.80;;;1.70;;
17993;SDS011;9122;48.406;9.984;2023-04-24T05:21:27;1.70;;;1.60;;
17993;SDS011;9122;48.406;9.984;2023-04-24T05:24:11;1.50;;;1.40;;
17993;SDS011;9122;48.406;9.984;2023-04-24T05:26:56;1.07;;;1.07;;
17993;SDS011;9122;48.406;9.984;2023-04-24T05:29:42;1.57;;;1.47;;
17993;SDS011;9122;48.406;9.984;2023-04-24T05:32:27;1.23;;;1.23;;
17993;SDS011;9122;48.406;9.984;2023-04-24T05:35:11;1.37;;;1.27;;
17993;SDS011;9122;48.406;9.984;2023-04-24T05:37:56;1.30;;;1.30;;
17993;SDS011;9122;48.406;9.984;2023-04-24T05:40:41;2.10;;;1.40;;
17993;SDS011;9122;48.406;9.984;2023-04-24T05:43:25;1.57;;;1.30;;
17993;SDS011;9122;48.406;9.984;2023-04-24T05:46:11;0.80;;;0.80;;
17993;SDS011;9122;48.406;9.984;2023-04-24T05:48:56;1.37;;;1.00;;
17993;SDS011;9122;48.406;9.984;2023-04-24T05:51:41;1.20;;;1.10;;
17993;SDS011;9122;48.406;9.984;2023-04-24T05:54:25;2.63;;;1.33;;
17993;SDS011;9122;48.406;9.984;2023-04-24T05:57:09;1.10;;;1.00;;
17993;SDS011;9122;48.406;9.984;2023-04-24T05:59:54;1.07;;;0.97;;
17993;SDS011;9122;48.406;9.984;2023-04-24T06:02:39;1.30;;;1.20;;
17993;SDS011;9122;48.406;9.984;2023-04-24T06:05:23;1.07;;;0.97;;
17993;SDS011;9122;48.406;9.984;2023-04-24T06:08:08;1.20;;;1.10;;
17993;SDS011;9122;48.406;9.984;2023-04-24T06:10:53;1.10;;;1.10;;
17993;SDS011;9122;48.406;9.984;2023-04-24T06:13:38;1.50;;;1.37;;
17993;SDS011;9122;48.406;9.984;2023-04-24T06:16:22;2.23;;;1.90;;
17993;SDS011;9122;48.406;9.984;2023-04-24T06:19:07;1.40;;;1.00;;
17993;SDS011;9122;48.406;9.984;2023-04-24T06:21:52;1.00;;;0.90;;
17993;SDS011;9122;48.406;9.984;2023-04-24T06:24:36;1.53;;;0.80;;
17993;SDS011;9122;48.406;9.984;2023-04-24T06:27:21;0.97;;;0.93;;
17993;SDS011;9122;48.406;9.984;2023-04-24T06:30:06;0.83;;;0.83;;
17993;SDS011;9122;48.406;9.984;2023-04-24T06:32:51;2.37;;;1.00;;
17993;SDS011;9122;48.406;9.984;2023-04-24T06:35:35;1.43;;;1.20;;
17993;SDS011;9122;48.406;9.984;2023-04-24T06:38:23;2.17;;;1.00;;
17993;SDS011;9122;48.406;9.984;2023-04-24T06:41:09;0.90;;;0.90;;
17993;SDS011;9122;48.406;9.984;2023-04-24T06:43:53;1.17;;;1.07;;
17993;SDS011;9122;48.406;9.984;2023-04-24T06:46:38;1.40;;;1.30;;
17993;SDS011;9122;48.406;9.984;2023-04-24T06:49:23;1.00;;;1.00;;
17993;SDS011;9122;48.406;9.984;2023-04-24T06:52:07;1.73;;;1.10;;
17993;SDS011;9122;48.406;9.984;2023-04-24T06:54:52;3.87;;;1.30;;
17993;SDS011;9122;48.406;9.984;2023-04-24T06:57:43;1.20;;;0.97;;
17993;SDS011;9122;48.406;9.984;2023-04-24T07:00:28;1.13;;;1.03;;
17993;SDS011;9122;48.406;9.984;2023-04-24T07:03:13;1.13;;;1.03;;
17993;SDS011;9122;48.406;9.984;2023-04-24T07:05:58;2.13;;;1.03;;
17993;SDS011;9122;48.406;9.984;2023-04-24T07:08:42;1.47;;;1.33;;
17993;SDS011;9122;48.406;9.984;2023-04-24T07:11:27;1.37;;;1.27;;
17993;SDS011;9122;48.406;9.984;2023-04-24T07:14:13;1.40;;;1.30;;
17993;SDS011;9122;48.406;9.984;2023-04-24T07:16:57;1.33;;;1.23;;
17993;SDS011;9122;48.406;9.984;2023-04-24T07:19:42;1.07;;;1.07;;
17993;SDS011;9122;48.406;9.984;2023-04-24T07:22:26;1.57;;;1.33;;
17993;SDS011;9122;48.406;9.984;2023-04-24T07:25:10;1.60;;;1.50;;
17993;SDS011;9122;48.406;9.984;2023-04-24T07:27:55;1.60;;;1.07;;
17993;SDS011;9122;48.406;9.984;2023-04-24T07:30:40;1.37;;;1.27;;
17993;SDS011;9122;48.406;9.984;2023-04-24T07:33:24;2.20;;;2.10;;
17993;SDS011;9122;48.406;9.984;2023-04-24T07:36:09;2.23;;;1.80;;
17993;SDS011;9122;48.406;9.984;2023-04-24T07:38:58;1.77;;;1.67;;
17993;SDS011;9122;48.406;9.984;2023-04-24T07:41:43;2.20;;;2.10;;
17993;SDS011;9122;48.406;9.984;2023-04-24T07:44:28;1.63;;;1.53;;
17993;SDS011;9122;48.406;9.984;2023-04-24T07:47:13;1.33;;;1.27;;
17993;SDS011;9122;48.406;9.984;2023-04-24T07:49:59;3.10;;;1.70;;
17993;SDS011;9122;48.406;9.984;2023-04-24T07:52:43;1.80;;;1.70;;
17993;SDS011;9122;48.406;9.984;2023-04-24T07:55:28;1.70;;;1.60;;
17993;SDS011;9122;48.406;9.984;2023-04-24T07:58:12;2.40;;;2.10;;
17993;SDS011;9122;48.406;9.984;2023-04-24T08:00:56;3.50;;;1.70;;
17993;SDS011;9122;48.406;9.984;2023-04-24T08:03:41;1.83;;;1.53;;
17993;SDS011;9122;48.406;9.984;2023-04-24T08:06:26;1.77;;;1.67;;
17993;SDS011;9122;48.406;9.984;2023-04-24T08:09:13;3.13;;;2.07;;
17993;SDS011;9122;48.406;9.984;2023-04-24T08:11:58;2.43;;;1.60;;
17993;SDS011;9122;48.406;9.984;2023-04-24T08:14:43;2.23;;;1.80;;
17993;SDS011;9122;48.406;9.984;2023-04-24T08:17:28;1.97;;;1.77;;
17993;SDS011;9122;48.406;9.984;2023-04-24T08:20:13;2.33;;;1.60;;
17993;SDS011;9122;48.406;9.984;2023-04-24T08:22:57;2.53;;;1.80;;
17993;SDS011;9122;48.406;9.984;2023-04-24T08:25:41;1.63;;;1.53;;
17993;SDS011;9122;48.406;9.984;2023-04-24T08:28:26;2.17;;;1.80;;
17993;SDS011;9122;48.406;9.984;2023-04-24T08:31:11;2.37;;;1.80;;
17993;SDS011;9122;48.406;9.984;2023-04-24T08:33:55;1.80;;;1.70;;
17993;SDS011;9122;48.406;9.984;2023-04-24T08:36:40;1.37;;;1.30;;
17993;SDS011;9122;48.406;9.984;2023-04-24T08:39:24;1.50;;;1.40;;
17993;SDS011;9122;48.406;9.984;2023-04-24T08:42:09;1.90;;;1.80;;
17993;SDS011;9122;48.406;9.984;2023-04-24T08:44:56;1.67;;;1.57;;
17993;SDS011;9122;48.406;9.984;2023-04-24T08:47:41;1.77;;;1.67;;
17993;SDS011;9122;48.406;9.984;2023-04-24T08:50:26;1.30;;;1.20;;
17993;SDS011;9122;48.406;9.984;2023-04-24T08:53:12;0.97;;;0.97;;
17993;SDS011;9122;48.406;9.984;2023-04-24T08:55:56;1.03;;;1.03;;
17993;SDS011;9122;48.406;9.984;2023-04-24T08:58:41;1.17;;;1.17;;
17993;SDS011;9122;48.406;9.984;2023-04-24T09:01:27;1.00;;;1.00;;
17993;SDS011;9122;48.406;9.984;2023-04-24T09:04:12;2.83;;;1.30;;
17993;SDS011;9122;48.406;9.984;2023-04-24T09:06:59;1.60;;;1.50;;
17993;SDS011;9122;48.406;9.984;2023-04-24T09:09:44;1.40;;;1.30;;
17993;SDS011;9122;48.406;9.984;2023-04-24T09:12:29;1.73;;;1.63;;
17993;SDS011;9122;48.406;9.984;2023-04-24T09:15:14;1.27;;;1.20;;
17993;SDS011;9122;48.406;9.984;2023-04-24T09:17:58;1.40;;;1.30;;
17993;SDS011;9122;48.406;9.984;2023-04-24T09:23:43;1.40;;;1.30;;
17993;SDS011;9122;48.406;9.984;2023-04-24T09:26:31;1.40;;;1.30;;
17993;SDS011;9122;48.406;9.984;2023-04-24T09:29:18;1.43;;;1.37;;
17993;SDS011;9122;48.406;9.984;2023-04-24T09:32:19;1.50;;;1.40;;
17993;SDS011;9122;48.406;9.984;2023-04-24T09:35:13;1.27;;;1.27;;
17993;SDS011;9122;48.406;9.984;2023-04-24T09:37:59;2.47;;;1.60;;
17993;SDS011;9122;48.406;9.984;2023-04-24T09:40:43;1.53;;;1.43;;
17993;SDS011;9122;48.406;9.984;2023-04-24T09:43:28;0.90;;;0.90;;
17993;SDS011;9122;48.406;9.984;2023-04-24T09:46:13;1.10;;;1.10;;
17993;SDS011;9122;48.406;9.984;2023-04-24T09:48:58;1.40;;;1.30;;
17993;SDS011;9122;48.406;9.984;2023-04-24T09:52:06;1.00;;;1.00;;
17993;SDS011;9122;48.406;9.984;2023-04-24T09:54:55;1.53;;;1.40;;
17993;SDS011;9122;48.406;9.984;2023-04-24T09:57:58;1.10;;;1.10;;
17993;SDS011;9122;48.406;9.984;2023-04-24T10:00:44;1.23;;;1.13;;
17993;SDS011;9122;48.406;9.984;2023-04-24T10:03:30;2.73;;;1.20;;
17993;SDS011;9122;48.406;9.984;2023-04-24T10:06:15;1.67;;;1.20;;
17993;SDS011;9122;48.406;9.984;2023-04-24T10:08:59;1.00;;;1.00;;
17993;SDS011;9122;48.406;9.984;2023-04-24T10:11:45;1.40;;;1.30;;
17993;SDS011;9122;48.406;9.984;2023-04-24T10:14:31;1.20;;;1.20;;
17993;SDS011;9122;48.406;9.984;2023-04-24T10:17:15;2.00;;;1.40;;
17993;SDS011;9122;48.406;9.984;2023-04-24T10:20:00;1.27;;;1.17;;
17993;SDS011;9122;48.406;9.984;2023-04-24T10:22:47;1.30;;;1.20;;
17993;SDS011;9122;48.406;9.984;2023-04-24T10:25:39;2.40;;;1.43;;
17993;SDS011;9122;48.406;9.984;2023-04-24T10:28:24;2.13;;;1.43;;
17993;SDS011;9122;48.406;9.984;2023-04-24T10:31:12;2.07;;;1.57;;
17993;SDS011;9122;48.406;9.984;2023-04-24T10:34:00;1.20;;;1.10;;
17993;SDS011;9122;48.406;9.984;2023-04-24T10:36:48;1.40;;;1.30;;
17993;SDS011;9122;48.406;9.984;2023-04-24T10:39:35;1.40;;;1.30;;
17993;SDS011;9122;48.406;9.984;2023-04-24T10:42:20;3.80;;;1.50;;
17993;SDS011;9122;48.406;9.984;2023-04-24T10:45:05;4.30;;;1.57;;
17993;SDS011;9122;48.406;9.984;2023-04-24T10:47:56;4.37;;;1.20;;
17993;SDS011;9122;48.406;9.984;2023-04-24T10:51:01;1.67;;;1.57;;
17993;SDS011;9122;48.406;9.984;2023-04-24T10:53:45;2.07;;;1.37;;
17993;SDS011;9122;48.406;9.984;2023-04-24T10:56:30;2.23;;;1.23;;
17993;SDS011;9122;48.406;9.984;2023-04-24T10:59:24;1.43;;;1.33;;
17993;SDS011;9122;48.406;9.984;2023-04-24T11:02:09;1.63;;;1.53;;
17993;SDS011;9122;48.406;9.984;2023-04-24T11:04:54;1.90;;;1.73;;
17993;SDS011;9122;48.406;9.984;2023-04-24T11:11:03;1.50;;;1.40;;
17993;SDS011;9122;48.406;9.984;2023-04-24T11:16:52;1.50;;;1.40;;
17993;SDS011;9122;48.406;9.984;2023-04-24T11:19:40;2.07;;;1.40;;
17993;SDS011;9122;48.406;9.984;2023-04-24T11:22:25;3.03;;;1.50;;
17993;SDS011;9122;48.406;9.984;2023-04-24T11:25:12;1.20;;;1.20;;
17993;SDS011;9122;48.406;9.984;2023-04-24T11:28:03;1.73;;;1.20;;
17993;SDS011;9122;48.406;9.984;2023-04-24T11:30:49;2.00;;;1.10;;
17993;SDS011;9122;48.406;9.984;2023-04-24T11:33:34;1.70;;;1.37;;
17993;SDS011;9122;48.406;9.984;2023-04-24T11:36:19;3.13;;;1.40;;
17993;SDS011;9122;48.406;9.984;2023-04-24T11:39:05;2.20;;;1.17;;
17993;SDS011;9122;48.406;9.984;2023-04-24T11:41:50;1.10;;;1.00;;
17993;SDS011;9122;48.406;9.984;2023-04-24T11:44:35;1.17;;;1.17;;
17993;SDS011;9122;48.406;9.984;2023-04-24T11:47:30;1.40;;;1.30;;
17993;SDS011;9122;48.406;9.984;2023-04-24T11:50:18;2.37;;;1.70;;
17993;SDS011;9122;48.406;9.984;2023-04-24T11:53:05;1.87;;;1.77;;
17993;SDS011;9122;48.406;9.984;2023-04-24T11:55:49;3.33;;;1.70;;
17993;SDS011;9122;48.406;9.984;2023-04-24T11:58:34;1.27;;;1.13;;
17993;SDS011;9122;48.406;9.984;2023-04-24T12:01:20;1.23;;;1.20;;
17993;SDS011;9122;48.406;9.984;2023-04-24T12:04:04;1.30;;;1.03;;
17993;SDS011;9122;48.406;9.984;2023-04-24T12:06:58;1.20;;;1.20;;
17993;SDS011;9122;48.406;9.984;2023-04-24T12:09:45;1.40;;;1.23;;
17993;SDS011;9122;48.406;9.984;2023-04-24T12:12:31;1.67;;;1.57;;
17993;SDS011;9122;48.406;9.984;2023-04-24T12:15:15;1.20;;;1.10;;
17993;SDS011;9122;48.406;9.984;2023-04-24T12:18:01;1.20;;;1.20;;
17993;SDS011;9122;48.406;9.984;2023-04-24T12:20:45;1.10;;;1.10;;
17993;SDS011;9122;48.406;9.984;2023-04-24T12:23:34;1.07;;;1.07;;
17993;SDS011;9122;48.406;9.984;2023-04-24T12:26:21;4.73;;;1.40;;
17993;SDS011;9122;48.406;9.984;2023-04-24T12:29:06;0.80;;;0.80;;
17993;SDS011;9122;48.406;9.984;2023-04-24T12:31:52;2.43;;;1.03;;
17993;SDS011;9122;48.406;9.984;2023-04-24T12:34:36;0.97;;;0.97;;
17993;SDS011;9122;48.406;9.984;2023-04-24T12:37:25;2.93;;;0.97;;
17993;SDS011;9122;48.406;9.984;2023-04-24T12:40:10;2.60;;;1.13;;
17993;SDS011;9122;48.406;9.984;2023-04-24T12:42:56;1.77;;;1.40;;
17993;SDS011;9122;48.406;9.984;2023-04-24T12:45:41;1.30;;;1.20;;
17993;SDS011;9122;48.406;9.984;2023-04-24T12:48:28;1.33;;;1.23;;
17993;SDS011;9122;48.406;9.984;2023-04-24T12:51:13;1.10;;;1.00;;
17993;SDS011;9122;48.406;9.984;2023-04-24T12:53:58;1.33;;;1.23;;
17993;SDS011;9122;48.406;9.984;2023-04-24T12:56:42;0.80;;;0.80;;
17993;SDS011;9122;48.406;9.984;2023-04-24T12:59:27;1.00;;;1.00;;
17993;SDS011;9122;48.406;9.984;2023-04-24T13:02:11;1.10;;;1.10;;
17993;SDS011;9122;48.406;9.984;2023-04-24T13:04:56;0.97;;;0.80;;
17993;SDS011;9122;48.406;9.984;2023-04-24T13:07:44;1.60;;;1.30;;
17993;SDS011;9122;48.406;9.984;2023-04-24T13:10:29;1.30;;;1.20;;
17993;SDS011;9122;48.406;9.984;2023-04-24T13:13:13;0.90;;;0.90;;
17993;SDS011;9122;48.406;9.984;2023-04-24T13:15:58;0.90;;;0.90;;
17993;SDS011;9122;48.406;9.984;2023-04-24T13:18:43;1.03;;;1.03;;
17993;SDS011;9122;48.406;9.984;2023-04-24T13:21:27;1.80;;;1.07;;
17993;SDS011;9122;48.406;9.984;2023-04-24T13:24:13;0.90;;;0.90;;
17993;SDS011;9122;48.406;9.984;2023-04-24T13:26:59;1.17;;;0.87;;
17993;SDS011;9122;48.406;9.984;2023-04-24T13:29:44;0.87;;;0.87;;
17993;SDS011;9122;48.406;9.984;2023-04-24T13:32:29;1.30;;;1.03;;
17993;SDS011;9122;48.406;9.984;2023-04-24T13:35:13;1.50;;;1.00;;
17993;SDS011;9122;48.406;9.984;2023-04-24T13:37:58;0.90;;;0.90;;
17993;SDS011;9122;48.406;9.984;2023-04-24T13:40:43;0.70;;;0.70;;
17993;SDS011;9122;48.406;9.984;2023-04-24T13:43:27;2.57;;;1.00;;
17993;SDS011;9122;48.406;9.984;2023-04-24T13:46:12;0.83;;;0.83;;
17993;SDS011;9122;48.406;9.984;2023-04-24T13:48:56;1.10;;;1.10;;
17993;SDS011;9122;48.406;9.984;2023-04-24T13:51:42;3.03;;;0.90;;
17993;SDS011;9122;48.406;9.984;2023-04-24T13:54:26;1.00;;;0.90;;
17993;SDS011;9122;48.406;9.984;2023-04-24T13:57:11;1.00;;;1.00;;
17993;SDS011;9122;48.406;9.984;2023-04-24T13:59:55;0.67;;;0.67;;
17993;SDS011;9122;48.406;9.984;2023-04-24T14:02:44;0.90;;;0.90;;
17993;SDS011;9122;48.406;9.984;2023-04-24T14:05:29;1.33;;;0.93;;
17993;SDS011;9122;48.406;9.984;2023-04-24T14:08:15;1.30;;;1.17;;
17993;SDS011;9122;48.406;9.984;2023-04-24T14:10:59;2.00;;;1.53;;
17993;SDS011;9122;48.406;9.984;2023-04-24T14:13:44;1.20;;;1.20;;
17993;SDS011;9122;48.406;9.984;2023-04-24T14:16:29;1.17;;;1.17;;
17993;SDS011;9122;48.406;9.984;2023-04-24T14:19:14;1.57;;;1.00;;
17993;SDS011;9122;48.406;9.984;2023-04-24T14:21:59;1.53;;;1.10;;
17993;SDS011;9122;48.406;9.984;2023-04-24T14:24:44;0.70;;;0.70;;
17993;SDS011;9122;48.406;9.984;2023-04-24T14:27:28;1.10;;;1.10;;
17993;SDS011;9122;48.406;9.984;2023-04-24T14:30:13;0.97;;;0.97;;
17993;SDS011;9122;48.406;9.984;2023-04-24T14:32:59;1.40;;;1.30;;
17993;SDS011;9122;48.406;9.984;2023-04-24T14:35:44;1.60;;;1.07;;
17993;SDS011;9122;48.406;9.984;2023-04-24T14:38:29;1.30;;;1.20;;
17993;SDS011;9122;48.406;9.984;2023-04-24T14:41:14;0.93;;;0.93;;
17993;SDS011;9122;48.406;9.984;2023-04-24T14:43:59;1.30;;;1.30;;
17993;SDS011;9122;48.406;9.984;2023-04-24T14:46:44;1.00;;;1.00;;
17993;SDS011;9122;48.406;9.984;2023-04-24T14:49:29;0.80;;;0.80;;
17993;SDS011;9122;48.406;9.984;2023-04-24T14:52:13;1.43;;;1.33;;
17993;SDS011;9122;48.406;9.984;2023-04-24T14:54:58;3.17;;;1.40;;
17993;SDS011;9122;48.406;9.984;2023-04-24T14:57:42;1.57;;;1.47;;
17993;SDS011;9122;48.406;9.984;2023-04-24T15:00:27;1.50;;;1.10;;
17993;SDS011;9122;48.406;9.984;2023-04-24T15:03:11;1.23;;;0.90;;
17993;SDS011;9122;48.406;9.984;2023-04-24T15:05:56;1.43;;;1.33;;
17993;SDS011;9122;48.406;9.984;2023-04-24T15:08:41;1.70;;;1.23;;
17993;SDS011;9122;48.406;9.984;2023-04-24T15:11:32;1.50;;;1.40;;
17993;SDS011;9122;48.406;9.984;2023-04-24T15:14:17;1.27;;;1.17;;
17993;SDS011;9122;48.406;9.984;2023-04-24T15:17:02;1.30;;;1.10;;
17993;SDS011;9122;48.406;9.984;2023-04-24T15:19:47;1.00;;;1.00;;
17993;SDS011;9122;48.406;9.984;2023-04-24T15:22:32;1.13;;;1.13;;
17993;SDS011;9122;48.406;9.984;2023-04-24T15:25:16;1.00;;;1.00;;
17993;SDS011;9122;48.406;9.984;2023-04-24T15:28:01;1.27;;;1.23;;
17993;SDS011;9122;48.406;9.984;2023-04-24T15:30:45;1.00;;;1.00;;
17993;SDS011;9122;48.406;9.984;2023-04-24T15:33:30;1.83;;;1.13;;
17993;SDS011;9122;48.406;9.984;2023-04-24T15:36:14;1.37;;;1.30;;
17993;SDS011;9122;48.406;9.984;2023-04-24T15:39:00;1.27;;;1.23;;
17993;SDS011;9122;48.406;9.984;2023-04-24T15:41:47;1.40;;;1.30;;
17993;SDS011;9122;48.406;9.984;2023-04-24T15:44:33;1.40;;;1.30;;
17993;SDS011;9122;48.406;9.984;2023-04-24T15:47:18;1.30;;;1.20;;
17993;SDS011;9122;48.406;9.984;2023-04-24T15:50:03;1.40;;;1.30;;
17993;SDS011;9122;48.406;9.984;2023-04-24T15:52:48;1.63;;;1.40;;
17993;SDS011;9122;48.406;9.984;2023-04-24T15:55:32;1.40;;;1.30;;
17993;SDS011;9122;48.406;9.984;2023-04-24T15:58:17;1.23;;;1.10;;
17993;SDS011;9122;48.406;9.984;2023-04-24T16:01:04;1.40;;;1.30;;
17993;SDS011;9122;48.406;9.984;2023-04-24T16:03:48;1.10;;;1.10;;
17993;SDS011;9122;48.406;9.984;2023-04-24T16:06:33;1.97;;;1.20;;
17993;SDS011;9122;48.406;9.984;2023-04-24T16:09:17;1.30;;;1.20;;
17993;SDS011;9122;48.406;9.984;2023-04-24T16:12:02;1.17;;;1.17;;
17993;SDS011;9122;48.406;9.984;2023-04-24T16:14:47;1.40;;;1.27;;
17993;SDS011;9122;48.406;9.984;2023-04-24T16:17:31;1.10;;;1.10;;
17993;SDS011;9122;48.406;9.984;2023-04-24T16:20:16;1.00;;;1.00;;
17993;SDS011;9122;48.406;9.984;2023-04-24T16:23:00;1.70;;;1.60;;
17993;SDS011;9122;48.406;9.984;2023-04-24T16:25:44;1.23;;;1.17;;
17993;SDS011;9122;48.406;9.984;2023-04-24T16:28:29;1.20;;;1.20;;
17993;SDS011;9122;48.406;9.984;2023-04-24T16:31:14;0.90;;;0.90;;
17993;SDS011;9122;48.406;9.984;2023-04-24T16:33:59;1.40;;;1.30;;
17993;SDS011;9122;48.406;9.984;2023-04-24T16:36:43;1.00;;;1.00;;
17993;SDS011;9122;48.406;9.984;2023-04-24T16:39:28;1.20;;;1.20;;
17993;SDS011;9122;48.406;9.984;2023-04-24T16:42:13;1.30;;;1.20;;
17993;SDS011;9122;48.406;9.984;2023-04-24T16:44:59;1.53;;;1.43;;
17993;SDS011;9122;48.406;9.984;2023-04-24T16:47:43;2.10;;;1.90;;
17993;SDS011;9122;48.406;9.984;2023-04-24T16:50:28;1.20;;;1.10;;
17993;SDS011;9122;48.406;9.984;2023-04-24T16:53:12;1.23;;;1.23;;
17993;SDS011;9122;48.406;9.984;2023-04-24T16:55:57;1.70;;;1.60;;
17993;SDS011;9122;48.406;9.984;2023-04-24T16:58:42;1.27;;;1.17;;
17993;SDS011;9122;48.406;9.984;2023-04-24T17:01:26;1.20;;;1.10;;